...

 METAR AND TAF INFORMATION
METAR FOR UEEE
ADDS - METARS form results

(1720 UTC 18 January 2021)
Data provider http://aviationweather.gov/metar/data/
 
METAR text: UEEE 181700Z 00000MPS 0650 R23L/1500D FG VV003 M51/M57 Q1023 R23L/450150 NOSIG RMK QBB090 QFE758
Conditions at: UEEE (YAKUTSK , RU) observed 1700 UTC 18 January 2021
Temperature: -51.0°C (-60°F)
Dewpoint: -57.0°C (-71°F) [RH = 49%]
Pressure (altimeter): 30.21 inches Hg (1023.0 mb)
Winds: calm
Visibility: 0.40 miles (0.64 km)
Ceiling: indefinite ceiling with vertical visibility of 300 feet AGL
Clouds: obscured sky
Weather: FG  (fog)

METAR text: UEEE 181630Z 00000MPS 0650 0550SW R23L/1500U FG VV002 M51/M57 Q1023 R23L/450150 NOSIG RMK QBB060 QFE759
Conditions at: UEEE (YAKUTSK , RU) observed 1630 UTC 18 January 2021
Temperature: -51.0°C (-60°F)
Dewpoint: -57.0°C (-71°F) [RH = 49%]
Pressure (altimeter): 30.21 inches Hg (1023.0 mb)
Winds: calm
Visibility: 0.40 miles (0.64 km)
Ceiling: indefinite ceiling with vertical visibility of 200 feet AGL
Clouds: obscured sky
Weather: FG  (fog)

Forecast for: UEEE (YAKUTSK , RU)
Text: TAF UEEE 181400Z 1815/1921 VRB01MPS 0300 FG VV002 TXM49/1906Z TNM53/1823Z
Forecast period: 1500 UTC 18 January 2021 to 2100 UTC 19 January 2021
Forecast type: FROM: standard forecast or significant change
Winds: variable direction winds at 2 MPH (2 knots; 1.0 m/s)
Visibility: 0.19 miles (0.31 km)
Ceiling: indefinite ceiling with vertical visibility of 200 feet AGL
Clouds: obscured sky
Weather: FG  (fog)
Text: TEMPO 1815/1903 0700 FG NSC
Forecast period: 1500 UTC 18 January 2021 to 0300 UTC 19 January 2021
Forecast type: TEMPORARY: The following changes expected for less than half the time period
Visibility: 0.43 miles (0.69 km)
Ceiling: unknown
Clouds: missing
Weather: FG  (fog)

 AIRPORT MAP

 RUNWAY INFORMATION
Runway 05L Runway length 8202 ft Runway width 161 ft
Runway elevation 322 ft Runway displaced threshold 0 ft Runway heading 30
Runway 23R Runway length 8202 ft Runway width 161 ft
Runway elevation 318 ft Runway displaced threshold 3400 ft Runway heading 210
Runway 05R Runway length 11155 ft Runway width 197 ft
Runway elevation 322 ft Runway displaced threshold 2965 ft Runway heading 37
Runway 23L Runway length 11155 ft Runway width 197 ft
Runway elevation 315 ft Runway displaced threshold 0 ft Runway heading 217

 AIRPORT FREQUENCIES
Type APP Name APP Frequency 129.3 MHZ
Type ATIS Name ATIS Frequency 126.2 MHZ
Type GND Name GND Frequency 121.7 MHZ
Type RDR Name ASR Frequency 120.3 MHZ
Type TWR Name TWR Frequency 120 MHZ

 AIRPORT NEAR NAVIGATION AIDS
Type NDB Name Yakutsk Frequency 334 KHZ
Type NDB Name Yakutsk Frequency 290 KHZ
Type NDB Name Yakutsk Frequency 334 KHZ